createdAt,value
2022-09-16T00:02:46.860Z,0.30
2022-09-16T00:05:26.904Z,0.40
2022-09-16T00:08:02.761Z,0.47
2022-09-16T00:10:41.773Z,0.45
2022-09-16T00:13:23.848Z,0.43
2022-09-16T00:16:05.270Z,0.30
2022-09-16T00:18:33.367Z,0.30
2022-09-16T00:21:20.175Z,0.30
2022-09-16T00:23:48.475Z,0.30
2022-09-16T00:59:58.004Z,0.30
2022-09-16T01:16:17.529Z,0.30
2022-09-16T01:19:23.453Z,0.40
2022-09-16T01:22:45.865Z,0.50
2022-09-16T01:25:37.414Z,0.30
2022-09-16T01:35:20.770Z,0.35
2022-09-16T01:38:47.919Z,0.30
2022-09-16T01:41:43.463Z,0.40
2022-09-16T01:48:19.559Z,0.52
2022-09-16T01:51:28.616Z,0.60
2022-09-16T01:54:27.427Z,0.68
2022-09-16T01:57:04.929Z,0.40
2022-09-16T02:00:03.712Z,0.50
2022-09-16T02:05:50.593Z,0.40
2022-09-16T02:08:33.522Z,0.47
2022-09-16T02:11:07.327Z,0.50
2022-09-16T02:13:57.979Z,0.50
2022-09-16T02:16:49.764Z,0.70
2022-09-16T02:19:22.377Z,0.50
2022-09-16T02:21:59.051Z,0.93
2022-09-16T02:24:39.329Z,0.60
2022-09-16T02:30:33.976Z,0.82
2022-09-16T02:39:11.726Z,1.10
2022-09-16T02:41:41.659Z,1.00
2022-09-16T02:44:11.895Z,0.90
2022-09-16T02:47:04.398Z,1.00
2022-09-16T02:50:09.537Z,1.13
2022-09-16T02:52:51.281Z,1.08
2022-09-16T02:56:00.986Z,1.20
2022-09-16T03:01:35.468Z,1.67
2022-09-16T03:04:07.378Z,1.45
2022-09-16T03:06:42.053Z,1.30
2022-09-16T03:09:14.965Z,1.67
2022-09-16T03:12:03.033Z,1.67
2022-09-16T03:14:59.003Z,1.30
2022-09-16T03:17:46.111Z,1.52
2022-09-16T03:20:21.385Z,1.50
2022-09-16T03:23:14.129Z,1.30
2022-09-16T03:26:00.854Z,1.50
2022-09-16T03:28:51.885Z,1.27
2022-09-16T03:31:57.262Z,1.50
2022-09-16T03:34:32.588Z,1.60
2022-09-16T03:37:05.662Z,1.35
2022-09-16T03:39:35.229Z,1.40
2022-09-16T03:42:08.617Z,1.98
2022-09-16T03:44:41.570Z,1.20
2022-09-16T03:47:11.774Z,1.10
2022-09-16T03:49:39.341Z,1.00
2022-09-16T03:55:27.345Z,1.50
2022-09-16T03:57:58.431Z,1.33
2022-09-16T04:00:44.516Z,1.38
2022-09-16T04:03:36.511Z,1.30
2022-09-16T04:06:18.960Z,1.10
2022-09-16T04:08:51.375Z,1.45
2022-09-16T04:11:21.805Z,1.60
2022-09-16T04:13:48.704Z,1.40
2022-09-16T04:16:21.696Z,1.40
2022-09-16T04:18:50.843Z,1.45
2022-09-16T04:21:18.821Z,1.20
2022-09-16T04:23:45.956Z,1.33
2022-09-16T04:29:22.064Z,1.60
2022-09-16T04:31:49.308Z,1.30
2022-09-16T04:34:17.052Z,1.10
2022-09-16T04:36:46.140Z,1.40
2022-09-16T04:39:16.814Z,1.20
2022-09-16T04:41:43.842Z,1.05
2022-09-16T04:44:11.496Z,1.38
2022-09-16T04:46:40.158Z,1.17
2022-09-16T04:49:07.644Z,1.05
2022-09-16T04:51:34.866Z,0.90
2022-09-16T04:54:02.012Z,0.88
2022-09-16T04:56:33.494Z,1.20
2022-09-16T04:59:05.373Z,0.98
2022-09-16T05:01:36.996Z,0.93
2022-09-16T05:04:06.461Z,0.73
2022-09-16T05:06:45.358Z,1.02
2022-09-16T05:09:19.133Z,0.93
2022-09-16T05:11:45.732Z,1.00
2022-09-16T05:14:20.037Z,0.82
2022-09-16T05:16:50.122Z,0.68
2022-09-16T05:19:17.756Z,0.60
2022-09-16T05:21:45.009Z,0.80
2022-09-16T05:24:14.753Z,0.82
2022-09-16T05:26:43.618Z,0.90
2022-09-16T05:29:16.678Z,0.65
2022-09-16T05:31:47.892Z,0.70
2022-09-16T05:34:19.926Z,0.70
2022-09-16T05:36:50.239Z,0.90
2022-09-16T05:39:26.806Z,0.82
2022-09-16T05:41:57.103Z,0.55
2022-09-16T05:44:24.938Z,0.60
2022-09-16T05:46:52.089Z,0.50
2022-09-16T05:49:22.672Z,0.68
2022-09-16T05:51:51.117Z,0.70
2022-09-16T05:54:25.021Z,0.90
2022-09-16T05:56:54.764Z,0.60
2022-09-16T05:59:22.890Z,0.60
2022-09-16T06:01:50.049Z,0.60
2022-09-16T06:07:00.690Z,0.68
2022-09-16T06:09:29.808Z,0.50
2022-09-16T06:12:01.935Z,0.50
2022-09-16T06:14:31.489Z,0.52
2022-09-16T06:17:01.610Z,0.60
2022-09-16T06:19:30.192Z,1.13
2022-09-16T06:21:57.236Z,0.65
2022-09-16T06:24:26.261Z,1.10
2022-09-16T06:26:53.511Z,0.63
2022-09-16T06:29:23.377Z,0.52
2022-09-16T06:31:54.975Z,0.60
2022-09-16T06:34:22.166Z,0.50
2022-09-16T06:36:49.262Z,0.52
2022-09-16T06:39:17.436Z,0.65
2022-09-16T06:41:45.936Z,0.65
2022-09-16T06:44:12.979Z,0.50
2022-09-16T06:46:40.545Z,0.47
2022-09-16T06:49:07.669Z,0.55
2022-09-16T06:51:38.247Z,0.65
2022-09-16T06:54:09.452Z,0.43
2022-09-16T06:56:38.214Z,0.30
2022-09-16T06:59:05.759Z,0.47
2022-09-16T07:01:33.454Z,0.50
2022-09-16T07:04:05.723Z,0.47
2022-09-16T07:09:22.509Z,0.43
2022-09-16T07:11:49.735Z,0.40
2022-09-16T07:14:16.976Z,0.28
2022-09-16T07:16:45.868Z,0.47
2022-09-16T07:19:13.814Z,0.50
2022-09-16T07:22:12.801Z,0.40
2022-09-16T07:24:49.733Z,0.40
2022-09-16T07:27:20.965Z,0.40
2022-09-16T07:29:54.077Z,0.40
2022-09-16T07:32:23.089Z,0.30
2022-09-16T07:34:55.751Z,0.50
2022-09-16T07:37:28.064Z,0.30
2022-09-16T07:42:40.779Z,0.38
2022-09-16T07:45:14.448Z,0.30
2022-09-16T07:47:41.765Z,0.20
2022-09-16T07:50:12.183Z,0.30
2022-09-16T07:58:12.805Z,0.30
2022-09-16T08:00:40.149Z,0.25
2022-09-16T08:03:10.795Z,0.45
2022-09-16T08:05:44.476Z,0.47
2022-09-16T08:08:12.281Z,0.40
2022-09-16T08:10:42.941Z,0.40
2022-09-16T08:13:10.593Z,0.40
2022-09-16T08:15:39.830Z,0.40
2022-09-16T08:18:12.170Z,0.70
2022-09-16T08:20:40.317Z,0.40
2022-09-16T08:23:09.723Z,0.40
2022-09-16T08:25:36.811Z,0.30
2022-09-16T08:28:06.319Z,0.50
2022-09-16T08:30:33.241Z,0.30
2022-09-16T08:33:01.157Z,0.30
2022-09-16T08:35:34.097Z,0.32
2022-09-16T08:38:01.918Z,0.52
2022-09-16T08:40:36.488Z,0.50
2022-09-16T08:43:20.807Z,0.40
2022-09-16T08:46:01.330Z,0.37
2022-09-16T08:48:55.634Z,0.40
2022-09-16T08:51:23.641Z,0.38
2022-09-16T08:54:02.871Z,0.60
2022-09-16T08:56:36.228Z,0.40
2022-09-16T08:59:11.126Z,0.30
2022-09-16T09:01:56.353Z,0.17
2022-09-16T09:04:23.986Z,0.40
2022-09-16T09:06:54.638Z,0.30
2022-09-16T09:09:31.713Z,0.50
2022-09-16T09:12:15.932Z,0.28
2022-09-16T09:14:52.671Z,0.30
2022-09-16T09:17:37.106Z,0.30
2022-09-16T09:20:46.708Z,0.30
2022-09-16T09:23:13.472Z,0.30
2022-09-16T09:25:58.659Z,0.40
2022-09-16T09:28:31.431Z,0.20
2022-09-16T09:31:17.715Z,0.30
2022-09-16T09:34:14.337Z,0.32
2022-09-16T09:37:34.024Z,0.32
2022-09-16T09:40:13.781Z,0.47
2022-09-16T09:42:51.277Z,0.40
2022-09-16T09:45:32.232Z,0.22
2022-09-16T09:48:14.971Z,0.30
2022-09-16T09:50:46.209Z,0.30
2022-09-16T09:53:25.341Z,0.40
2022-09-16T09:55:59.313Z,0.95
2022-09-16T09:58:46.720Z,0.60
2022-09-16T10:01:13.696Z,0.30
2022-09-16T10:03:40.965Z,0.25
2022-09-16T10:06:10.750Z,0.30
2022-09-16T10:08:50.924Z,0.30
2022-09-16T10:11:31.898Z,0.32
2022-09-16T10:14:02.538Z,0.30
2022-09-16T10:16:32.870Z,0.30
2022-09-16T10:19:06.986Z,0.65
2022-09-16T10:21:49.632Z,0.38
2022-09-16T10:24:36.686Z,0.20
2022-09-16T10:27:21.229Z,0.30
2022-09-16T10:29:49.143Z,0.30
2022-09-16T10:32:19.871Z,0.40
2022-09-16T10:34:47.408Z,0.40
2022-09-16T10:37:16.664Z,0.32
2022-09-16T10:39:50.329Z,0.20
2022-09-16T10:42:36.124Z,0.30
2022-09-16T10:45:14.321Z,0.25
2022-09-16T10:47:41.466Z,0.43
2022-09-16T10:50:08.820Z,0.30
2022-09-16T10:52:46.668Z,0.30
2022-09-16T10:55:38.078Z,0.30
2022-09-16T10:58:10.153Z,0.25
2022-09-16T11:00:57.075Z,0.20
2022-09-16T11:03:46.024Z,0.30
2022-09-16T11:06:50.575Z,0.20
2022-09-16T11:09:32.684Z,0.20
2022-09-16T11:12:17.848Z,0.38
2022-09-16T11:14:53.317Z,0.20
2022-09-16T11:17:55.481Z,0.35
2022-09-16T11:20:52.808Z,0.30
2022-09-16T11:23:31.015Z,0.30
2022-09-16T11:26:17.807Z,0.17
2022-09-16T11:29:14.451Z,0.20
2022-09-16T11:31:41.038Z,0.20
2022-09-16T11:34:37.120Z,0.22
2022-09-16T11:37:09.738Z,0.20
2022-09-16T11:40:05.261Z,0.30
2022-09-16T11:42:56.945Z,0.20
2022-09-16T11:45:35.500Z,0.30
2022-09-16T11:48:07.997Z,0.40
2022-09-16T11:50:44.644Z,0.17
2022-09-16T11:53:34.624Z,0.20
2022-09-16T11:56:19.041Z,0.20
2022-09-16T11:58:58.096Z,0.30
2022-09-16T12:01:37.679Z,0.40
2022-09-16T12:04:33.733Z,0.20
2022-09-16T12:09:58.425Z,1.08
2022-09-16T12:12:32.488Z,0.35
2022-09-16T12:15:09.347Z,0.40
2022-09-16T12:17:40.624Z,0.43
2022-09-16T12:20:39.448Z,0.28
2022-09-16T12:23:11.764Z,0.25
2022-09-16T12:26:06.327Z,0.50
2022-09-16T12:28:37.501Z,0.47
2022-09-16T12:31:39.147Z,0.20
2022-09-16T12:34:12.235Z,0.30
2022-09-16T12:36:45.684Z,0.30
2022-09-16T12:39:12.764Z,0.30
2022-09-16T12:41:44.129Z,0.20
2022-09-16T12:44:30.394Z,0.30
2022-09-16T12:47:35.398Z,0.47
2022-09-16T12:50:27.683Z,0.30
2022-09-16T12:53:26.169Z,0.40
2022-09-16T12:56:39.516Z,0.38
2022-09-16T12:59:31.667Z,0.70
2022-09-16T13:02:15.781Z,0.40
2022-09-16T13:04:52.337Z,0.80
2022-09-16T13:07:30.824Z,0.30
2022-09-16T13:10:07.953Z,0.50
2022-09-16T13:12:43.222Z,0.88
2022-09-16T13:15:27.408Z,0.30
2022-09-16T13:17:54.956Z,0.30
2022-09-16T13:20:30.136Z,0.30
2022-09-16T13:22:59.707Z,0.20
2022-09-16T13:25:35.028Z,0.40
2022-09-16T13:28:04.847Z,0.30
2022-09-16T13:30:37.640Z,0.68
2022-09-16T13:33:26.519Z,0.43
2022-09-16T13:36:16.807Z,0.40
2022-09-16T13:38:47.140Z,0.40
2022-09-16T13:41:14.597Z,0.22
2022-09-16T13:43:47.849Z,0.32
2022-09-16T13:46:33.665Z,0.50
2022-09-16T13:49:13.110Z,0.38
2022-09-16T13:51:46.334Z,0.20
2022-09-16T13:54:20.703Z,0.30
2022-09-16T13:57:14.896Z,0.68
2022-09-16T13:59:44.252Z,0.32
2022-09-16T14:02:21.748Z,0.40
2022-09-16T14:05:17.277Z,0.30
2022-09-16T14:07:44.857Z,0.30
2022-09-16T14:10:22.044Z,0.40
2022-09-16T14:13:25.818Z,0.50
2022-09-16T14:15:56.490Z,0.30
2022-09-16T14:18:27.565Z,0.20
2022-09-16T14:21:16.613Z,0.32
2022-09-16T14:23:43.272Z,0.20
2022-09-16T14:26:14.657Z,0.30
2022-09-16T14:28:41.592Z,0.25
2022-09-16T14:31:13.808Z,0.32
2022-09-16T14:33:56.398Z,0.20
2022-09-16T14:36:26.683Z,0.20
2022-09-16T14:39:04.391Z,0.30
2022-09-16T14:41:35.513Z,0.28
2022-09-16T14:44:26.725Z,0.30
2022-09-16T14:47:08.884Z,0.30
2022-09-16T14:49:38.077Z,0.28
2022-09-16T14:52:05.365Z,0.30
2022-09-16T14:54:32.645Z,0.13
2022-09-16T14:57:10.355Z,0.20
2022-09-16T14:59:40.047Z,0.20
2022-09-16T15:02:12.527Z,0.20
2022-09-16T15:04:41.747Z,0.20
2022-09-16T15:07:18.993Z,0.20
2022-09-16T15:09:52.137Z,1.02
2022-09-16T15:12:28.153Z,0.10
2022-09-16T15:14:55.176Z,0.10
2022-09-16T15:17:24.432Z,0.15
2022-09-16T15:19:58.114Z,0.20
2022-09-16T15:22:28.163Z,0.20
2022-09-16T15:24:59.422Z,0.20
2022-09-16T15:27:29.695Z,0.50
2022-09-16T15:29:59.593Z,0.22
2022-09-16T15:32:29.888Z,0.20
2022-09-16T15:35:11.671Z,0.20
2022-09-16T15:37:38.651Z,0.30
2022-09-16T15:40:20.770Z,0.20
2022-09-16T15:43:24.360Z,0.20
2022-09-16T15:45:59.671Z,0.28
2022-09-16T15:48:31.880Z,0.20
2022-09-16T15:51:20.885Z,0.20
2022-09-16T15:53:49.332Z,0.20
2022-09-16T15:56:24.547Z,0.20
2022-09-16T15:58:58.023Z,0.80
2022-09-16T16:01:30.643Z,0.30
2022-09-16T16:04:00.042Z,0.20
2022-09-16T16:06:47.343Z,0.22
2022-09-16T16:09:30.747Z,0.10
2022-09-16T16:11:59.694Z,0.30
2022-09-16T16:14:35.077Z,0.30
2022-09-16T16:17:13.165Z,0.45
2022-09-16T16:19:45.713Z,0.20
2022-09-16T16:22:13.191Z,0.52
2022-09-16T16:24:40.260Z,0.22
2022-09-16T16:27:10.181Z,0.15
2022-09-16T16:29:38.913Z,0.10
2022-09-16T16:32:14.078Z,0.20
2022-09-16T16:34:43.777Z,0.20
2022-09-16T16:37:28.042Z,0.20
2022-09-16T16:40:00.161Z,0.10
2022-09-16T16:42:28.878Z,0.10
2022-09-16T16:44:56.754Z,0.20
2022-09-16T16:47:24.239Z,0.15
2022-09-16T16:49:52.043Z,0.22
2022-09-16T16:52:18.924Z,0.30
2022-09-16T16:54:46.207Z,0.20
2022-09-16T16:57:13.296Z,0.32
2022-09-16T16:59:39.921Z,0.20
2022-09-16T17:02:06.720Z,0.20
2022-09-16T17:04:33.393Z,0.20
2022-09-16T17:07:24.557Z,0.40
2022-09-16T17:09:49.378Z,0.20
2022-09-16T17:12:18.377Z,0.30
2022-09-16T17:14:45.016Z,0.30
2022-09-16T17:17:11.715Z,0.10
2022-09-16T17:19:38.458Z,0.30
2022-09-16T17:22:05.195Z,0.30
2022-09-16T17:24:32.715Z,0.20
2022-09-16T17:27:00.447Z,0.20
2022-09-16T17:29:27.439Z,0.28
2022-09-16T17:31:57.224Z,0.30
2022-09-16T17:34:26.639Z,0.28
2022-09-16T17:36:54.725Z,0.20
2022-09-16T17:39:22.999Z,0.20
2022-09-16T17:41:51.340Z,0.25
2022-09-16T17:44:19.679Z,0.40
2022-09-16T17:46:47.521Z,0.38
2022-09-16T17:49:22.351Z,0.30
2022-09-16T17:51:50.938Z,0.20
2022-09-16T17:54:18.268Z,0.20
2022-09-16T17:56:45.757Z,0.30
2022-09-16T17:59:14.353Z,0.20
2022-09-16T18:01:42.022Z,0.43
2022-09-16T18:04:09.153Z,0.30
2022-09-16T18:06:42.194Z,0.25
2022-09-16T18:09:10.468Z,0.88
2022-09-16T18:11:38.891Z,0.63
2022-09-16T18:14:08.259Z,0.40
2022-09-16T18:16:35.756Z,0.30
2022-09-16T18:19:03.845Z,0.22
2022-09-16T18:21:31.938Z,0.20
2022-09-16T18:24:01.216Z,0.20
2022-09-16T18:26:28.761Z,0.30
2022-09-16T18:29:12.820Z,0.50
2022-09-16T18:31:43.902Z,0.40
2022-09-16T18:34:11.253Z,0.30
2022-09-16T18:36:39.502Z,0.30
2022-09-16T18:39:07.901Z,0.30
2022-09-16T18:41:39.365Z,0.45
2022-09-16T18:44:12.034Z,0.30
2022-09-16T18:46:39.629Z,0.20
2022-09-16T18:49:07.310Z,0.30
2022-09-16T18:51:35.751Z,0.30
2022-09-16T18:54:05.984Z,0.30
2022-09-16T18:56:36.952Z,0.30
2022-09-16T18:59:22.692Z,0.20
2022-09-16T19:01:56.672Z,0.25
2022-09-16T19:04:26.291Z,0.30
2022-09-16T19:06:56.397Z,0.22
2022-09-16T19:09:25.132Z,0.15
2022-09-16T19:11:53.233Z,0.20
2022-09-16T19:14:24.397Z,0.30
2022-09-16T19:16:51.833Z,0.13
2022-09-16T19:19:19.920Z,0.30
2022-09-16T19:21:47.677Z,0.20
2022-09-16T19:24:26.590Z,0.20
2022-09-16T19:26:55.204Z,0.13
2022-09-16T19:29:22.639Z,0.28
2022-09-16T19:31:52.309Z,0.17
2022-09-16T19:34:20.586Z,0.20
2022-09-16T19:36:47.812Z,0.20
2022-09-16T19:39:15.370Z,0.20
2022-09-16T19:41:43.018Z,0.20
2022-09-16T19:44:15.999Z,0.17
2022-09-16T19:46:44.934Z,0.22
2022-09-16T19:49:17.593Z,0.30
2022-09-16T19:51:46.609Z,0.10
2022-09-16T19:54:13.836Z,0.40
2022-09-16T19:56:41.373Z,0.22
2022-09-16T19:59:09.006Z,0.20
2022-09-16T20:01:36.976Z,0.15
2022-09-16T20:04:08.161Z,0.20
2022-09-16T20:06:39.001Z,0.30
2022-09-16T20:09:09.014Z,0.25
2022-09-16T20:11:37.770Z,0.30
2022-09-16T20:14:13.257Z,0.20
2022-09-16T20:16:40.176Z,0.20
2022-09-16T20:19:12.844Z,0.20
2022-09-16T20:21:39.916Z,0.20
2022-09-16T20:24:08.723Z,0.20
2022-09-16T20:26:36.185Z,0.22
2022-09-16T20:29:04.354Z,0.20
2022-09-16T20:31:36.519Z,0.20
2022-09-16T20:34:05.140Z,0.20
2022-09-16T20:36:35.794Z,0.20
2022-09-16T20:39:03.005Z,0.10
2022-09-16T20:41:31.849Z,0.20
2022-09-16T20:43:59.553Z,0.20
2022-09-16T20:46:31.954Z,0.10
2022-09-16T20:49:01.025Z,0.10
2022-09-16T20:51:31.499Z,0.10
2022-09-16T20:54:07.066Z,0.15
2022-09-16T20:56:38.204Z,0.20
2022-09-16T20:59:09.566Z,0.22
2022-09-16T21:01:38.419Z,0.20
2022-09-16T21:04:07.711Z,0.20
2022-09-16T21:06:36.030Z,0.10
2022-09-16T21:09:06.936Z,0.10
2022-09-16T21:11:34.208Z,0.10
2022-09-16T21:14:08.773Z,0.20
2022-09-16T21:19:09.343Z,0.20
2022-09-16T21:21:39.191Z,0.22
2022-09-16T21:24:08.430Z,0.30
2022-09-16T21:26:36.911Z,0.17
2022-09-16T21:29:09.141Z,0.13
2022-09-16T21:31:38.231Z,0.10
2022-09-16T21:34:06.794Z,0.20
2022-09-16T21:36:38.084Z,0.15
2022-09-16T21:39:06.049Z,0.20
2022-09-16T21:41:33.474Z,0.20
2022-09-16T21:44:01.379Z,0.20
2022-09-16T21:46:30.490Z,0.30
2022-09-16T21:49:01.304Z,0.30
2022-09-16T21:51:37.984Z,0.22
2022-09-16T21:54:09.876Z,0.10
2022-09-16T21:56:38.837Z,0.20
2022-09-16T21:59:06.573Z,0.20
2022-09-16T22:01:34.837Z,0.10
2022-09-16T22:04:07.442Z,0.10
2022-09-16T22:06:35.411Z,0.30
2022-09-16T22:09:05.220Z,0.15
2022-09-16T22:11:33.273Z,0.10
2022-09-16T22:14:02.523Z,0.20
2022-09-16T22:16:32.053Z,0.20
2022-09-16T22:19:05.834Z,0.30
2022-09-16T22:21:37.542Z,0.20
2022-09-16T22:24:05.142Z,0.30
2022-09-16T22:26:33.029Z,0.38
2022-09-16T22:29:03.024Z,0.30
2022-09-16T22:31:32.208Z,0.20
2022-09-16T22:34:03.929Z,0.20
2022-09-16T22:36:33.372Z,0.20
2022-09-16T22:39:07.137Z,0.20
2022-09-16T22:41:34.717Z,0.20
2022-09-16T22:44:02.093Z,0.15
2022-09-16T22:46:31.694Z,0.10
2022-09-16T22:48:59.743Z,0.30
2022-09-16T22:51:28.221Z,0.20
2022-09-16T22:53:55.516Z,0.30
2022-09-16T22:56:32.093Z,0.85
2022-09-16T22:59:02.626Z,0.10
2022-09-16T23:01:33.616Z,0.20
2022-09-16T23:04:02.336Z,0.20
2022-09-16T23:06:32.099Z,0.20
2022-09-16T23:09:00.711Z,0.10
2022-09-16T23:11:31.037Z,0.20
2022-09-16T23:13:58.408Z,0.17
2022-09-16T23:16:35.841Z,0.40
2022-09-16T23:19:05.837Z,0.40
2022-09-16T23:21:33.052Z,0.40
2022-09-16T23:24:02.692Z,0.22
2022-09-16T23:26:33.372Z,0.20
2022-09-16T23:29:02.074Z,0.10
2022-09-16T23:31:31.559Z,0.20
2022-09-16T23:34:01.821Z,0.30
2022-09-16T23:36:29.122Z,0.17
2022-09-16T23:38:56.510Z,0.15
2022-09-16T23:41:28.421Z,0.10
2022-09-16T23:43:56.860Z,0.30
2022-09-16T23:46:26.441Z,0.38
2022-09-16T23:48:55.561Z,0.43
2022-09-16T23:51:28.076Z,0.25
2022-09-16T23:54:01.615Z,0.20
2022-09-16T23:56:28.829Z,0.20
2022-09-16T23:59:01.147Z,0.20
